Jerusalem, Ohio
Current Conditions -  °F | °C
As of 11:53 PM on Saturday 25 Oct 2014 (Local Time) from KHLG Reporting Station
Clear Clear  
Wind Chill: 58°   Ceiling: Unl
Heat Index: 58°   Visibility: 10mi
Dew Point: 36°   Wind: 16mph
Humidity: 44%   Direction: 290°WNW
Pressure: 29.82"   Gusts: 24mph
Location:  39.85°N, 81.09°W
Report Text: KHLG 260353Z AUTO 29014G21KT 10SM CLR 14/02 A2982 RMK AO2 PK WND 28026/0324 SLP099 T01440022
Loading
Personal Weather Stations






























Interactive Weather Map
Tropical Storm Tracking
New forecast layout! Learn more

10-Day Weather Forecast

Advertisements
Track Severe Weather on mobile